TGW905 VMMC-WSSS
Flight info
| Callsign | TGW905 |
|---|---|
| Flight time | 3h 30m |
| Altitude | 36000 |
| Route | ALLEY V32 EPDOS L642 EPKAL/K0852F360 L642 ESPOB/N0457F360 Q801 ESBUM/N0456F370 Q802 ELALO ELALO1B |
| Aircraft | A320/M-SDFGHIRWYZ/LB1 |
Departure
| Time | 2026-05-05 05:08 |
|---|---|
| Airport | Macau International Airport (VMMC) |
Arrival
| Time | 2026-05-05 08:38 |
|---|---|
| Airport | Singapore Changi Airport (WSSS) |
| Time | Latitude | Longitude | Altitude | Speed | Heading |
|---|---|---|---|---|---|
| 2026-05-05 04:27 | 22.15618 | 113.57413 | 29 ft | 0 kts | 332° |
| 2026-05-05 04:53 | 22.15605 | 113.57420 | 29 ft | 4 kts | 335° |
| 2026-05-05 04:53 | 22.15580 | 113.57432 | 29 ft | 4 kts | 343° |
| 2026-05-05 04:53 | 22.15554 | 113.57437 | 29 ft | 4 kts | 4° |
| 2026-05-05 04:53 | 22.15533 | 113.57430 | 29 ft | 3 kts | 60° |
| 2026-05-05 04:54 | 22.15530 | 113.57423 | 29 ft | 0 kts | 62° |
| 2026-05-05 04:58 | 22.15532 | 113.57426 | 29 ft | 2 kts | 62° |
| 2026-05-05 04:58 | 22.15551 | 113.57466 | 29 ft | 10 kts | 62° |
| 2026-05-05 04:59 | 22.15595 | 113.57535 | 29 ft | 11 kts | 52° |
| 2026-05-05 04:59 | 22.15606 | 113.57610 | 29 ft | 11 kts | 107° |
| 2026-05-05 04:59 | 22.15564 | 113.57682 | 29 ft | 12 kts | 123° |
| 2026-05-05 04:59 | 22.15514 | 113.57763 | 29 ft | 14 kts | 123° |
| 2026-05-05 05:00 | 22.15458 | 113.57854 | 29 ft | 15 kts | 124° |
| 2026-05-05 05:00 | 22.15395 | 113.57955 | 29 ft | 17 kts | 123° |
| 2026-05-05 05:00 | 22.15326 | 113.58068 | 29 ft | 19 kts | 123° |
| 2026-05-05 05:00 | 22.15250 | 113.58192 | 29 ft | 21 kts | 123° |
| 2026-05-05 05:01 | 22.15173 | 113.58315 | 29 ft | 20 kts | 124° |
| 2026-05-05 05:01 | 22.15096 | 113.58439 | 28 ft | 21 kts | 123° |
| 2026-05-05 05:01 | 22.15013 | 113.58574 | 28 ft | 22 kts | 123° |
| 2026-05-05 05:01 | 22.14923 | 113.58718 | 28 ft | 24 kts | 123° |
| 2026-05-05 05:02 | 22.14838 | 113.58856 | 28 ft | 18 kts | 124° |
| 2026-05-05 05:02 | 22.14768 | 113.58970 | 29 ft | 17 kts | 123° |
| 2026-05-05 05:02 | 22.14679 | 113.59053 | 28 ft | 18 kts | 161° |
| 2026-05-05 05:02 | 22.14554 | 113.59097 | 28 ft | 20 kts | 161° |
| 2026-05-05 05:03 | 22.14427 | 113.59147 | 28 ft | 18 kts | 161° |
| 2026-05-05 05:03 | 22.14317 | 113.59187 | 28 ft | 16 kts | 161° |
| 2026-05-05 05:03 | 22.14203 | 113.59228 | 28 ft | 18 kts | 161° |
| 2026-05-05 05:03 | 22.14080 | 113.59273 | 28 ft | 20 kts | 158° |
| 2026-05-05 05:04 | 22.13959 | 113.59319 | 28 ft | 17 kts | 161° |
| 2026-05-05 05:04 | 22.13845 | 113.59361 | 28 ft | 18 kts | 161° |
| 2026-05-05 05:04 | 22.13723 | 113.59406 | 28 ft | 18 kts | 160° |
| 2026-05-05 05:04 | 22.13646 | 113.59454 | 28 ft | 10 kts | 106° |
| 2026-05-05 05:05 | 22.13647 | 113.59477 | 28 ft | 1 kts | 76° |
| 2026-05-05 05:05 | 22.13651 | 113.59490 | 28 ft | 3 kts | 76° |
| 2026-05-05 05:05 | 22.13657 | 113.59514 | 28 ft | 4 kts | 73° |
| 2026-05-05 05:05 | 22.13668 | 113.59549 | 28 ft | 6 kts | 69° |
| 2026-05-05 05:06 | 22.13693 | 113.59584 | 28 ft | 7 kts | 24° |
| 2026-05-05 05:06 | 22.13741 | 113.59586 | 29 ft | 7 kts | 339° |
| 2026-05-05 05:06 | 22.13757 | 113.59580 | 29 ft | 1 kts | 341° |
| 2026-05-05 05:06 | 22.13761 | 113.59579 | 30 ft | 1 kts | 341° |
| 2026-05-05 05:07 | 22.13866 | 113.59540 | 30 ft | 44 kts | 341° |
| 2026-05-05 05:07 | 22.14372 | 113.59354 | 27 ft | 107 kts | 341° |
| 2026-05-05 05:07 | 22.15230 | 113.59039 | 29 ft | 152 kts | 341° |
| 2026-05-05 05:07 | 22.16317 | 113.58644 | 349 ft | 165 kts | 342° |
| 2026-05-05 05:08 | 22.17423 | 113.58268 | 892 ft | 171 kts | 352° |
| 2026-05-05 05:08 | 22.18587 | 113.58369 | 1493 ft | 170 kts | 22° |
| 2026-05-05 05:08 | 22.19646 | 113.59017 | 1899 ft | 187 kts | 31° |
| 2026-05-05 05:08 | 22.20823 | 113.59780 | 2213 ft | 204 kts | 31° |
| 2026-05-05 05:09 | 22.22065 | 113.60559 | 2797 ft | 209 kts | 32° |
| 2026-05-05 05:09 | 22.23327 | 113.61343 | 3540 ft | 210 kts | 32° |
| 2026-05-05 05:09 | 22.24602 | 113.62133 | 4242 ft | 214 kts | 32° |
| 2026-05-05 05:09 | 22.25900 | 113.62937 | 4912 ft | 219 kts | 31° |
| 2026-05-05 05:10 | 22.27241 | 113.63767 | 5565 ft | 225 kts | 31° |
| 2026-05-05 05:10 | 22.28578 | 113.64676 | 6187 ft | 233 kts | 39° |
| 2026-05-05 05:10 | 22.29915 | 113.65813 | 6491 ft | 256 kts | 39° |
| 2026-05-05 05:10 | 22.31372 | 113.67066 | 6829 ft | 279 kts | 39° |
| 2026-05-05 05:11 | 22.32899 | 113.68429 | 7441 ft | 289 kts | 45° |
| 2026-05-05 05:11 | 22.34107 | 113.70173 | 8148 ft | 293 kts | 63° |
| 2026-05-05 05:11 | 22.34778 | 113.72261 | 8847 ft | 297 kts | 79° |
| 2026-05-05 05:11 | 22.35194 | 113.74460 | 9541 ft | 301 kts | 79° |
| 2026-05-05 05:12 | 22.35622 | 113.76698 | 10187 ft | 307 kts | 79° |
| 2026-05-05 05:12 | 22.36063 | 113.78980 | 10814 ft | 313 kts | 79° |
| 2026-05-05 05:12 | 22.36518 | 113.81325 | 11189 ft | 329 kts | 79° |
| 2026-05-05 05:12 | 22.36849 | 113.83843 | 11330 ft | 350 kts | 91° |
| 2026-05-05 05:13 | 22.36498 | 113.86497 | 11519 ft | 364 kts | 110° |
| 2026-05-05 05:13 | 22.35389 | 113.88951 | 11977 ft | 366 kts | 128° |
| 2026-05-05 05:13 | 22.33649 | 113.90937 | 12537 ft | 364 kts | 146° |
| 2026-05-05 05:13 | 22.31508 | 113.92395 | 13105 ft | 364 kts | 153° |
| 2026-05-05 05:14 | 22.29308 | 113.93777 | 13680 ft | 368 kts | 154° |
| 2026-05-05 05:14 | 22.27079 | 113.95166 | 14265 ft | 371 kts | 154° |
| 2026-05-05 05:14 | 22.24837 | 113.96559 | 14760 ft | 374 kts | 154° |
| 2026-05-05 05:14 | 22.22472 | 113.97713 | 15307 ft | 373 kts | 165° |
| 2026-05-05 05:15 | 22.19957 | 113.98354 | 15832 ft | 371 kts | 176° |
| 2026-05-05 05:15 | 22.17387 | 113.98568 | 16008 ft | 371 kts | 180° |
| 2026-05-05 05:15 | 22.14812 | 113.98731 | 16035 ft | 371 kts | 180° |
| 2026-05-05 05:15 | 22.12233 | 113.98898 | 16035 ft | 371 kts | 180° |
| 2026-05-05 05:16 | 22.09658 | 113.99068 | 16035 ft | 370 kts | 180° |
| 2026-05-05 05:16 | 22.07088 | 113.99240 | 16036 ft | 370 kts | 180° |
| 2026-05-05 05:16 | 22.04553 | 113.99564 | 16057 ft | 376 kts | 171° |
| 2026-05-05 05:16 | 22.01961 | 114.00186 | 16567 ft | 378 kts | 171° |
| 2026-05-05 05:17 | 21.99383 | 114.00791 | 17112 ft | 380 kts | 171° |
| 2026-05-05 05:17 | 21.96782 | 114.01392 | 17616 ft | 383 kts | 172° |
| 2026-05-05 05:17 | 21.94163 | 114.01995 | 18121 ft | 387 kts | 172° |
| 2026-05-05 05:17 | 21.91558 | 114.02596 | 18599 ft | 390 kts | 172° |
| 2026-05-05 05:18 | 21.88891 | 114.03212 | 19061 ft | 394 kts | 172° |
| 2026-05-05 05:18 | 21.86323 | 114.03804 | 19492 ft | 397 kts | 172° |
| 2026-05-05 05:18 | 21.83604 | 114.04431 | 19913 ft | 401 kts | 172° |
| 2026-05-05 05:18 | 21.80863 | 114.05064 | 20330 ft | 405 kts | 172° |
| 2026-05-05 05:19 | 21.78097 | 114.05704 | 20735 ft | 409 kts | 173° |
| 2026-05-05 05:19 | 21.75300 | 114.06348 | 21137 ft | 412 kts | 173° |
| 2026-05-05 05:19 | 21.72484 | 114.06997 | 21527 ft | 416 kts | 173° |
| 2026-05-05 05:19 | 21.69644 | 114.07653 | 21899 ft | 419 kts | 173° |
| 2026-05-05 05:20 | 21.66778 | 114.08240 | 22259 ft | 419 kts | 178° |
| 2026-05-05 05:20 | 21.63883 | 114.08358 | 22603 ft | 415 kts | 188° |
| 2026-05-05 05:20 | 21.61024 | 114.07939 | 22945 ft | 412 kts | 198° |
| 2026-05-05 05:20 | 21.58255 | 114.07213 | 23307 ft | 414 kts | 199° |
| 2026-05-05 05:21 | 21.55453 | 114.06476 | 23676 ft | 416 kts | 199° |
| 2026-05-05 05:21 | 21.52632 | 114.05741 | 23998 ft | 419 kts | 199° |
| 2026-05-05 05:21 | 21.49790 | 114.05004 | 24312 ft | 421 kts | 199° |
| 2026-05-05 05:21 | 21.46934 | 114.04267 | 24668 ft | 423 kts | 199° |
| 2026-05-05 05:22 | 21.44157 | 114.03301 | 25001 ft | 418 kts | 208° |
| 2026-05-05 05:22 | 21.41598 | 114.01864 | 25338 ft | 413 kts | 218° |
| 2026-05-05 05:22 | 21.39204 | 114.00165 | 25669 ft | 414 kts | 218° |
| 2026-05-05 05:22 | 21.36799 | 113.98459 | 25984 ft | 416 kts | 218° |
| 2026-05-05 05:23 | 21.34379 | 113.96749 | 26307 ft | 417 kts | 218° |
| 2026-05-05 05:23 | 21.31948 | 113.95035 | 26621 ft | 419 kts | 218° |
| 2026-05-05 05:23 | 21.29512 | 113.93319 | 26914 ft | 420 kts | 218° |
| 2026-05-05 05:23 | 21.27063 | 113.91589 | 27204 ft | 422 kts | 218° |
| 2026-05-05 05:24 | 21.24611 | 113.89855 | 27508 ft | 423 kts | 218° |
| 2026-05-05 05:24 | 21.22151 | 113.88117 | 27810 ft | 425 kts | 218° |
| 2026-05-05 05:24 | 21.20513 | 113.86962 | 28003 ft | 426 kts | 218° |
| 2026-05-05 05:24 | 21.17193 | 113.84623 | 28401 ft | 428 kts | 217° |
| 2026-05-05 05:25 | 21.15541 | 113.83463 | 28597 ft | 429 kts | 217° |
| 2026-05-05 05:25 | 21.13041 | 113.81708 | 28889 ft | 431 kts | 217° |
| 2026-05-05 05:25 | 21.10477 | 113.80029 | 29218 ft | 434 kts | 211° |
| 2026-05-05 05:25 | 21.07662 | 113.78808 | 29642 ft | 439 kts | 201° |
| 2026-05-05 05:26 | 21.04655 | 113.78142 | 30044 ft | 445 kts | 192° |
| 2026-05-05 05:26 | 21.01572 | 113.77807 | 30447 ft | 444 kts | 191° |
| 2026-05-05 05:26 | 20.97504 | 113.77360 | 30949 ft | 444 kts | 191° |
| 2026-05-05 05:26 | 20.95433 | 113.77130 | 31198 ft | 443 kts | 191° |
| 2026-05-05 05:27 | 20.92359 | 113.76784 | 31560 ft | 443 kts | 191° |
| 2026-05-05 05:27 | 20.89297 | 113.76437 | 31932 ft | 443 kts | 191° |
| 2026-05-05 05:27 | 20.83181 | 113.75742 | 32693 ft | 442 kts | 191° |
| 2026-05-05 05:28 | 20.80120 | 113.75400 | 33062 ft | 441 kts | 191° |
| 2026-05-05 05:28 | 20.77068 | 113.75064 | 33430 ft | 441 kts | 191° |
| 2026-05-05 05:28 | 20.74025 | 113.74728 | 33799 ft | 440 kts | 191° |
| 2026-05-05 05:28 | 20.70980 | 113.74389 | 34157 ft | 439 kts | 191° |
| 2026-05-05 05:29 | 20.67951 | 113.74049 | 34491 ft | 438 kts | 191° |
| 2026-05-05 05:29 | 20.64919 | 113.73709 | 34794 ft | 438 kts | 191° |
| 2026-05-05 05:29 | 20.61921 | 113.73375 | 35086 ft | 438 kts | 191° |
| 2026-05-05 05:29 | 20.58852 | 113.73032 | 35382 ft | 438 kts | 191° |
| 2026-05-05 05:30 | 20.55856 | 113.72700 | 35655 ft | 439 kts | 191° |
| 2026-05-05 05:30 | 20.52777 | 113.72360 | 35918 ft | 439 kts | 191° |
| 2026-05-05 05:30 | 20.46654 | 113.71679 | 36018 ft | 447 kts | 191° |
| 2026-05-05 05:31 | 20.40478 | 113.70981 | 36018 ft | 451 kts | 191° |
| 2026-05-05 05:31 | 20.34241 | 113.70281 | 36016 ft | 450 kts | 191° |
| 2026-05-05 05:32 | 20.27966 | 113.69592 | 36016 ft | 450 kts | 191° |
| 2026-05-05 05:32 | 20.21772 | 113.68917 | 36019 ft | 451 kts | 191° |
| 2026-05-05 05:33 | 20.15526 | 113.68231 | 36022 ft | 451 kts | 191° |
| 2026-05-05 05:33 | 20.09281 | 113.67531 | 36026 ft | 451 kts | 191° |
| 2026-05-05 05:34 | 20.03025 | 113.66832 | 36025 ft | 452 kts | 191° |
| 2026-05-05 05:34 | 19.96772 | 113.66137 | 36023 ft | 452 kts | 191° |
| 2026-05-05 05:35 | 19.90514 | 113.65443 | 36023 ft | 452 kts | 191° |
| 2026-05-05 05:35 | 19.84248 | 113.64751 | 36026 ft | 453 kts | 191° |
| 2026-05-05 05:36 | 19.77987 | 113.64067 | 36027 ft | 452 kts | 191° |
| 2026-05-05 05:36 | 19.71728 | 113.63378 | 36029 ft | 452 kts | 191° |
| 2026-05-05 05:37 | 19.65469 | 113.62681 | 36028 ft | 452 kts | 191° |
| 2026-05-05 05:37 | 19.59207 | 113.61991 | 36023 ft | 452 kts | 191° |
| 2026-05-05 05:38 | 19.52948 | 113.61304 | 36018 ft | 453 kts | 191° |
| 2026-05-05 05:38 | 19.46679 | 113.60616 | 36014 ft | 452 kts | 191° |
| 2026-05-05 05:39 | 19.40418 | 113.59935 | 36010 ft | 453 kts | 191° |
| 2026-05-05 05:39 | 19.34146 | 113.59250 | 36011 ft | 453 kts | 190° |
| 2026-05-05 05:40 | 19.27934 | 113.58564 | 36005 ft | 453 kts | 190° |
| 2026-05-05 05:40 | 19.21653 | 113.57873 | 36001 ft | 453 kts | 190° |
| 2026-05-05 05:41 | 19.15382 | 113.57187 | 35996 ft | 453 kts | 190° |
| 2026-05-05 05:41 | 19.09109 | 113.56503 | 35998 ft | 453 kts | 190° |
| 2026-05-05 05:42 | 19.02828 | 113.55820 | 35999 ft | 454 kts | 190° |
| 2026-05-05 05:42 | 18.96559 | 113.55086 | 35995 ft | 453 kts | 192° |
| 2026-05-05 05:43 | 18.90319 | 113.54179 | 35994 ft | 452 kts | 193° |
| 2026-05-05 05:43 | 18.84092 | 113.53230 | 35990 ft | 453 kts | 192° |
| 2026-05-05 05:44 | 18.77850 | 113.52319 | 35995 ft | 453 kts | 192° |
| 2026-05-05 05:44 | 18.71599 | 113.51438 | 35986 ft | 453 kts | 192° |
| 2026-05-05 05:45 | 18.65341 | 113.50555 | 35989 ft | 453 kts | 192° |
| 2026-05-05 05:45 | 18.59099 | 113.49606 | 35978 ft | 451 kts | 197° |
| 2026-05-05 05:46 | 18.53344 | 113.47264 | 35974 ft | 440 kts | 215° |
| 2026-05-05 05:46 | 18.48377 | 113.43533 | 35974 ft | 438 kts | 220° |
| 2026-05-05 05:47 | 18.43456 | 113.39734 | 35975 ft | 439 kts | 220° |
| 2026-05-05 05:47 | 18.38527 | 113.35944 | 35977 ft | 439 kts | 219° |
| 2026-05-05 05:48 | 18.33589 | 113.32158 | 35983 ft | 439 kts | 219° |
| 2026-05-05 05:48 | 18.28659 | 113.28364 | 35978 ft | 439 kts | 220° |
| 2026-05-05 05:49 | 18.23737 | 113.24569 | 35979 ft | 439 kts | 220° |
| 2026-05-05 05:49 | 18.18801 | 113.20775 | 35977 ft | 439 kts | 219° |
| 2026-05-05 05:50 | 18.13864 | 113.16985 | 35980 ft | 440 kts | 219° |
| 2026-05-05 05:50 | 18.08922 | 113.13191 | 35974 ft | 440 kts | 219° |
| 2026-05-05 05:51 | 18.04009 | 113.09415 | 35984 ft | 440 kts | 219° |
| 2026-05-05 05:51 | 17.99063 | 113.05623 | 35980 ft | 441 kts | 219° |
| 2026-05-05 05:52 | 17.94100 | 113.01837 | 35977 ft | 441 kts | 219° |
| 2026-05-05 05:52 | 17.89139 | 112.98037 | 35973 ft | 441 kts | 219° |
| 2026-05-05 05:53 | 17.84178 | 112.94232 | 35975 ft | 442 kts | 219° |
| 2026-05-05 05:53 | 17.79244 | 112.90369 | 35980 ft | 442 kts | 220° |
| 2026-05-05 05:54 | 17.74337 | 112.86481 | 35988 ft | 442 kts | 220° |
| 2026-05-05 05:54 | 17.69423 | 112.82598 | 35988 ft | 443 kts | 220° |
| 2026-05-05 05:55 | 17.64493 | 112.78725 | 35986 ft | 443 kts | 220° |
| 2026-05-05 05:55 | 17.59554 | 112.74854 | 35979 ft | 443 kts | 220° |
| 2026-05-05 05:56 | 17.54620 | 112.70982 | 35983 ft | 443 kts | 220° |
| 2026-05-05 05:56 | 17.49678 | 112.67116 | 35985 ft | 443 kts | 220° |
| 2026-05-05 05:57 | 17.44740 | 112.63248 | 35985 ft | 443 kts | 220° |
| 2026-05-05 05:57 | 17.39800 | 112.59380 | 35993 ft | 444 kts | 220° |
| 2026-05-05 05:58 | 17.34855 | 112.55514 | 35995 ft | 444 kts | 220° |
| 2026-05-05 05:58 | 17.29910 | 112.51652 | 35984 ft | 443 kts | 220° |
| 2026-05-05 05:59 | 17.24968 | 112.47793 | 35987 ft | 443 kts | 220° |
| 2026-05-05 05:59 | 17.20025 | 112.43940 | 35992 ft | 443 kts | 220° |
| 2026-05-05 06:00 | 17.15087 | 112.40083 | 35991 ft | 443 kts | 219° |
| 2026-05-05 06:00 | 17.10134 | 112.36225 | 35988 ft | 444 kts | 219° |
| 2026-05-05 06:01 | 17.05178 | 112.32374 | 35986 ft | 444 kts | 219° |
| 2026-05-05 06:01 | 17.00227 | 112.28523 | 35979 ft | 444 kts | 219° |
| 2026-05-05 06:02 | 16.95244 | 112.24702 | 35975 ft | 444 kts | 219° |
| 2026-05-05 06:02 | 16.90229 | 112.20920 | 35972 ft | 445 kts | 219° |
| 2026-05-05 06:03 | 16.85246 | 112.17163 | 35972 ft | 445 kts | 219° |
| 2026-05-05 06:03 | 16.80236 | 112.13371 | 35971 ft | 445 kts | 219° |
| 2026-05-05 06:04 | 16.75229 | 112.09565 | 35975 ft | 446 kts | 219° |
| 2026-05-05 06:04 | 16.70210 | 112.05759 | 35981 ft | 446 kts | 219° |
| 2026-05-05 06:05 | 16.65197 | 112.01969 | 35977 ft | 447 kts | 219° |
| 2026-05-05 06:05 | 16.60163 | 111.98169 | 35982 ft | 447 kts | 219° |
| 2026-05-05 06:06 | 16.55126 | 111.94374 | 35981 ft | 446 kts | 219° |
| 2026-05-05 06:06 | 16.50098 | 111.90575 | 35985 ft | 447 kts | 219° |
| 2026-05-05 06:07 | 16.45065 | 111.86770 | 35979 ft | 447 kts | 219° |
| 2026-05-05 06:07 | 16.40024 | 111.82974 | 35976 ft | 447 kts | 219° |
| 2026-05-05 06:08 | 16.34982 | 111.79182 | 35977 ft | 447 kts | 219° |
| 2026-05-05 06:08 | 16.29945 | 111.75389 | 35977 ft | 447 kts | 219° |
| 2026-05-05 06:09 | 16.24901 | 111.71598 | 35977 ft | 447 kts | 219° |
| 2026-05-05 06:09 | 16.19849 | 111.67809 | 35978 ft | 447 kts | 219° |
| 2026-05-05 06:10 | 16.14807 | 111.64021 | 35975 ft | 447 kts | 219° |
| 2026-05-05 06:10 | 16.09765 | 111.60230 | 35975 ft | 447 kts | 219° |
| 2026-05-05 06:11 | 16.04728 | 111.56445 | 35977 ft | 447 kts | 219° |
| 2026-05-05 06:11 | 16.00532 | 111.53304 | 35977 ft | 447 kts | 219° |
| 2026-05-05 06:12 | 15.95490 | 111.49521 | 35977 ft | 447 kts | 219° |
| 2026-05-05 06:12 | 15.90443 | 111.45737 | 35972 ft | 448 kts | 219° |
| 2026-05-05 06:13 | 15.85384 | 111.41956 | 35975 ft | 448 kts | 219° |
| 2026-05-05 06:13 | 15.80320 | 111.38176 | 35975 ft | 448 kts | 219° |
| 2026-05-05 06:14 | 15.75258 | 111.34395 | 35981 ft | 448 kts | 219° |
| 2026-05-05 06:14 | 15.70203 | 111.30611 | 35968 ft | 448 kts | 219° |
| 2026-05-05 06:15 | 15.65147 | 111.26822 | 35962 ft | 448 kts | 219° |
| 2026-05-05 06:15 | 15.60081 | 111.23046 | 35959 ft | 448 kts | 219° |
| 2026-05-05 06:16 | 15.55010 | 111.19273 | 35953 ft | 448 kts | 219° |
| 2026-05-05 06:16 | 15.49939 | 111.15504 | 35951 ft | 448 kts | 219° |
| 2026-05-05 06:17 | 15.44871 | 111.11730 | 35949 ft | 449 kts | 219° |
| 2026-05-05 06:17 | 15.39804 | 111.07951 | 35946 ft | 449 kts | 219° |
| 2026-05-05 06:18 | 15.34726 | 111.04170 | 35942 ft | 449 kts | 219° |
| 2026-05-05 06:18 | 15.29674 | 111.00348 | 35942 ft | 450 kts | 219° |
| 2026-05-05 06:19 | 15.24675 | 110.96531 | 35945 ft | 450 kts | 219° |
| 2026-05-05 06:19 | 15.19635 | 110.92692 | 35945 ft | 450 kts | 219° |
| 2026-05-05 06:20 | 15.14584 | 110.88863 | 35946 ft | 450 kts | 219° |
| 2026-05-05 06:20 | 15.09537 | 110.85028 | 35950 ft | 451 kts | 219° |
| 2026-05-05 06:21 | 15.04479 | 110.81193 | 35953 ft | 451 kts | 219° |
| 2026-05-05 06:21 | 14.99417 | 110.77364 | 35955 ft | 451 kts | 219° |
| 2026-05-05 06:22 | 14.94346 | 110.73527 | 35952 ft | 451 kts | 219° |
| 2026-05-05 06:22 | 14.89283 | 110.69695 | 35953 ft | 452 kts | 219° |
| 2026-05-05 06:23 | 14.84228 | 110.65868 | 35954 ft | 452 kts | 219° |
| 2026-05-05 06:23 | 14.79134 | 110.62024 | 35948 ft | 451 kts | 219° |
| 2026-05-05 06:24 | 14.74058 | 110.58193 | 35944 ft | 452 kts | 219° |
| 2026-05-05 06:24 | 14.68985 | 110.54357 | 35943 ft | 453 kts | 219° |
| 2026-05-05 06:25 | 14.63897 | 110.50521 | 35945 ft | 453 kts | 218° |
| 2026-05-05 06:25 | 14.58817 | 110.46689 | 35942 ft | 454 kts | 219° |
| 2026-05-05 06:26 | 14.53722 | 110.42847 | 35943 ft | 453 kts | 218° |
| 2026-05-05 06:26 | 14.48616 | 110.39009 | 35943 ft | 454 kts | 218° |
| 2026-05-05 06:27 | 14.40959 | 110.33247 | 35946 ft | 454 kts | 218° |
| 2026-05-05 06:28 | 14.35846 | 110.29406 | 35950 ft | 455 kts | 218° |
| 2026-05-05 06:28 | 14.30741 | 110.25557 | 35950 ft | 455 kts | 218° |
| 2026-05-05 06:29 | 14.25626 | 110.21713 | 35951 ft | 455 kts | 218° |
| 2026-05-05 06:29 | 14.20504 | 110.17865 | 35947 ft | 455 kts | 218° |
| 2026-05-05 06:30 | 14.15378 | 110.14026 | 35946 ft | 456 kts | 218° |
| 2026-05-05 06:30 | 14.10248 | 110.10183 | 35943 ft | 455 kts | 218° |
| 2026-05-05 06:31 | 14.05122 | 110.06337 | 35944 ft | 456 kts | 218° |
| 2026-05-05 06:31 | 13.99994 | 110.02495 | 35946 ft | 456 kts | 218° |
| 2026-05-05 06:32 | 13.94825 | 109.98698 | 35948 ft | 457 kts | 216° |
| 2026-05-05 06:32 | 13.89447 | 109.95190 | 35949 ft | 458 kts | 213° |
| 2026-05-05 06:33 | 13.84029 | 109.91833 | 35948 ft | 458 kts | 213° |
| 2026-05-05 06:33 | 13.78597 | 109.88416 | 35946 ft | 457 kts | 214° |
| 2026-05-05 06:34 | 13.73208 | 109.84943 | 35946 ft | 457 kts | 214° |
| 2026-05-05 06:34 | 13.67829 | 109.81457 | 35946 ft | 457 kts | 214° |
| 2026-05-05 06:35 | 13.62439 | 109.77987 | 35942 ft | 457 kts | 214° |
| 2026-05-05 06:35 | 13.57042 | 109.74523 | 35940 ft | 457 kts | 214° |
| 2026-05-05 06:36 | 13.51638 | 109.71066 | 35935 ft | 458 kts | 214° |
| 2026-05-05 06:36 | 13.46235 | 109.67604 | 35935 ft | 458 kts | 214° |
| 2026-05-05 06:37 | 13.40836 | 109.64140 | 35935 ft | 458 kts | 214° |
| 2026-05-05 06:37 | 13.35428 | 109.60677 | 35935 ft | 458 kts | 214° |
| 2026-05-05 06:38 | 13.30026 | 109.57220 | 35934 ft | 458 kts | 214° |
| 2026-05-05 06:38 | 13.24658 | 109.53786 | 35933 ft | 458 kts | 214° |
| 2026-05-05 06:39 | 13.19254 | 109.50324 | 35940 ft | 458 kts | 214° |
| 2026-05-05 06:39 | 13.13801 | 109.46844 | 35936 ft | 459 kts | 213° |
| 2026-05-05 06:40 | 13.08419 | 109.43408 | 35934 ft | 459 kts | 214° |
| 2026-05-05 06:40 | 13.03003 | 109.39954 | 35934 ft | 459 kts | 214° |
| 2026-05-05 06:41 | 12.97582 | 109.36489 | 35935 ft | 459 kts | 214° |
| 2026-05-05 06:41 | 12.92150 | 109.33027 | 35938 ft | 460 kts | 213° |
| 2026-05-05 06:42 | 12.86728 | 109.29569 | 35935 ft | 459 kts | 213° |
| 2026-05-05 06:42 | 12.81303 | 109.26112 | 35934 ft | 459 kts | 213° |
| 2026-05-05 06:43 | 12.75864 | 109.22656 | 35935 ft | 460 kts | 213° |
| 2026-05-05 06:43 | 12.70427 | 109.19191 | 35936 ft | 460 kts | 213° |
| 2026-05-05 06:44 | 12.64988 | 109.15730 | 35934 ft | 460 kts | 213° |
| 2026-05-05 06:44 | 12.59551 | 109.12270 | 35931 ft | 460 kts | 213° |
| 2026-05-05 06:45 | 12.54135 | 109.08836 | 35931 ft | 461 kts | 213° |
| 2026-05-05 06:45 | 12.48686 | 109.05387 | 35930 ft | 461 kts | 213° |
| 2026-05-05 06:46 | 12.43234 | 109.01933 | 35931 ft | 461 kts | 213° |
| 2026-05-05 06:46 | 12.37783 | 108.98480 | 35935 ft | 461 kts | 213° |
| 2026-05-05 06:47 | 12.32327 | 108.95019 | 35933 ft | 461 kts | 213° |
| 2026-05-05 06:47 | 12.26878 | 108.91565 | 35932 ft | 461 kts | 213° |
| 2026-05-05 06:48 | 12.21433 | 108.88113 | 35928 ft | 460 kts | 213° |
| 2026-05-05 06:48 | 12.15985 | 108.84668 | 35926 ft | 461 kts | 213° |
| 2026-05-05 06:49 | 12.10540 | 108.81227 | 35925 ft | 460 kts | 213° |
| 2026-05-05 06:49 | 12.05089 | 108.77785 | 35924 ft | 461 kts | 213° |
| 2026-05-05 06:50 | 11.99642 | 108.74342 | 35925 ft | 461 kts | 213° |
| 2026-05-05 06:50 | 11.94187 | 108.70899 | 35925 ft | 461 kts | 213° |
| 2026-05-05 06:51 | 11.88726 | 108.67451 | 35922 ft | 462 kts | 213° |
| 2026-05-05 06:51 | 11.83263 | 108.64001 | 35923 ft | 462 kts | 212° |
| 2026-05-05 06:52 | 11.77794 | 108.60558 | 35927 ft | 462 kts | 212° |
| 2026-05-05 06:52 | 11.72319 | 108.57114 | 35930 ft | 462 kts | 212° |
| 2026-05-05 06:53 | 11.66854 | 108.53675 | 35926 ft | 461 kts | 212° |
| 2026-05-05 06:53 | 11.61390 | 108.50241 | 35922 ft | 462 kts | 212° |
| 2026-05-05 06:54 | 11.55956 | 108.46826 | 35923 ft | 462 kts | 212° |
| 2026-05-05 06:54 | 11.50495 | 108.43381 | 35916 ft | 462 kts | 212° |
| 2026-05-05 06:55 | 11.45032 | 108.39938 | 35916 ft | 461 kts | 212° |
| 2026-05-05 06:55 | 11.39567 | 108.36501 | 35914 ft | 462 kts | 212° |
| 2026-05-05 06:56 | 11.34094 | 108.33071 | 35912 ft | 462 kts | 212° |
| 2026-05-05 06:56 | 11.28622 | 108.29638 | 35911 ft | 462 kts | 212° |
| 2026-05-05 06:57 | 11.23147 | 108.26208 | 35906 ft | 462 kts | 212° |
| 2026-05-05 06:57 | 11.17666 | 108.22772 | 35905 ft | 463 kts | 212° |
| 2026-05-05 06:58 | 11.12180 | 108.19333 | 35904 ft | 463 kts | 212° |
| 2026-05-05 06:58 | 11.06695 | 108.15899 | 35897 ft | 462 kts | 212° |
| 2026-05-05 06:59 | 11.01217 | 108.12465 | 35892 ft | 463 kts | 212° |
| 2026-05-05 06:59 | 10.95727 | 108.09029 | 35893 ft | 463 kts | 212° |
| 2026-05-05 07:00 | 10.91170 | 108.06169 | 35892 ft | 464 kts | 213° |
| 2026-05-05 07:00 | 10.85760 | 108.02597 | 35888 ft | 463 kts | 214° |
| 2026-05-05 07:01 | 10.80401 | 107.98970 | 35883 ft | 463 kts | 214° |
| 2026-05-05 07:01 | 10.75028 | 107.95372 | 35880 ft | 462 kts | 213° |
| 2026-05-05 07:02 | 10.69641 | 107.91800 | 35881 ft | 462 kts | 213° |
| 2026-05-05 07:02 | 10.64251 | 107.88233 | 35880 ft | 462 kts | 213° |
| 2026-05-05 07:03 | 10.58862 | 107.84661 | 35875 ft | 462 kts | 213° |
| 2026-05-05 07:03 | 10.53472 | 107.81093 | 35865 ft | 463 kts | 213° |
| 2026-05-05 07:04 | 10.48081 | 107.77524 | 35874 ft | 462 kts | 213° |
| 2026-05-05 07:04 | 10.42690 | 107.73953 | 35866 ft | 463 kts | 213° |
| 2026-05-05 07:05 | 10.37291 | 107.70390 | 35862 ft | 463 kts | 213° |
| 2026-05-05 07:05 | 10.31878 | 107.66833 | 35870 ft | 463 kts | 213° |
| 2026-05-05 07:06 | 10.26502 | 107.63297 | 35873 ft | 463 kts | 213° |
| 2026-05-05 07:06 | 10.21099 | 107.59734 | 35862 ft | 463 kts | 213° |
| 2026-05-05 07:07 | 10.15693 | 107.56169 | 35876 ft | 463 kts | 213° |
| 2026-05-05 07:07 | 10.10283 | 107.52607 | 35869 ft | 464 kts | 213° |
| 2026-05-05 07:08 | 10.04869 | 107.49041 | 35861 ft | 464 kts | 213° |
| 2026-05-05 07:08 | 9.99461 | 107.45469 | 35870 ft | 464 kts | 213° |
| 2026-05-05 07:09 | 9.94050 | 107.41899 | 35870 ft | 464 kts | 213° |
| 2026-05-05 07:09 | 9.88634 | 107.38336 | 35864 ft | 464 kts | 213° |
| 2026-05-05 07:10 | 9.83220 | 107.34766 | 35861 ft | 464 kts | 213° |
| 2026-05-05 07:10 | 9.77804 | 107.31193 | 35864 ft | 464 kts | 213° |
| 2026-05-05 07:11 | 9.72387 | 107.27625 | 35857 ft | 464 kts | 213° |
| 2026-05-05 07:11 | 9.66963 | 107.24060 | 35853 ft | 464 kts | 213° |
| 2026-05-05 07:12 | 9.61543 | 107.20499 | 35854 ft | 464 kts | 213° |
| 2026-05-05 07:12 | 9.56119 | 107.16934 | 35854 ft | 464 kts | 213° |
| 2026-05-05 07:13 | 9.50701 | 107.13370 | 35856 ft | 465 kts | 213° |
| 2026-05-05 07:13 | 9.45279 | 107.09811 | 35855 ft | 464 kts | 213° |
| 2026-05-05 07:14 | 9.39855 | 107.06256 | 35867 ft | 464 kts | 213° |
| 2026-05-05 07:14 | 9.34427 | 107.02697 | 35862 ft | 465 kts | 213° |
| 2026-05-05 07:15 | 9.29010 | 106.99135 | 35864 ft | 464 kts | 213° |
| 2026-05-05 07:15 | 9.23587 | 106.95580 | 35881 ft | 464 kts | 213° |
| 2026-05-05 07:16 | 9.18165 | 106.92029 | 35880 ft | 465 kts | 213° |
| 2026-05-05 07:16 | 9.12737 | 106.88478 | 35880 ft | 465 kts | 212° |
| 2026-05-05 07:17 | 9.07311 | 106.84921 | 35884 ft | 465 kts | 212° |
| 2026-05-05 07:17 | 9.01884 | 106.81363 | 35881 ft | 465 kts | 213° |
| 2026-05-05 07:18 | 8.96492 | 106.77825 | 35883 ft | 465 kts | 213° |
| 2026-05-05 07:18 | 8.91063 | 106.74264 | 35882 ft | 465 kts | 212° |
| 2026-05-05 07:19 | 8.85628 | 106.70720 | 35871 ft | 465 kts | 212° |
| 2026-05-05 07:19 | 8.80188 | 106.67172 | 35869 ft | 465 kts | 212° |
| 2026-05-05 07:20 | 8.74753 | 106.63610 | 35846 ft | 466 kts | 212° |
| 2026-05-05 07:20 | 8.69292 | 106.60088 | 35854 ft | 466 kts | 211° |
| 2026-05-05 07:21 | 8.63756 | 106.56684 | 35846 ft | 466 kts | 211° |
| 2026-05-05 07:21 | 8.58213 | 106.53290 | 35845 ft | 466 kts | 211° |
| 2026-05-05 07:22 | 8.52688 | 106.49871 | 35841 ft | 466 kts | 211° |
| 2026-05-05 07:22 | 8.47161 | 106.46436 | 35841 ft | 466 kts | 211° |
| 2026-05-05 07:23 | 8.41641 | 106.43002 | 35833 ft | 466 kts | 211° |
| 2026-05-05 07:23 | 8.36111 | 106.39570 | 35833 ft | 467 kts | 211° |
| 2026-05-05 07:24 | 8.30578 | 106.36143 | 35831 ft | 467 kts | 211° |
| 2026-05-05 07:24 | 8.25031 | 106.32710 | 35835 ft | 468 kts | 211° |
| 2026-05-05 07:25 | 8.19519 | 106.29289 | 35837 ft | 468 kts | 211° |
| 2026-05-05 07:25 | 8.13968 | 106.25846 | 35842 ft | 468 kts | 211° |
| 2026-05-05 07:26 | 8.08412 | 106.22411 | 35837 ft | 468 kts | 211° |
| 2026-05-05 07:26 | 8.02862 | 106.18969 | 35840 ft | 468 kts | 211° |
| 2026-05-05 07:27 | 7.97303 | 106.15535 | 35839 ft | 468 kts | 211° |
| 2026-05-05 07:27 | 7.91745 | 106.12101 | 35847 ft | 468 kts | 211° |
| 2026-05-05 07:28 | 7.86186 | 106.08668 | 35847 ft | 469 kts | 211° |
| 2026-05-05 07:28 | 7.80626 | 106.05243 | 35841 ft | 468 kts | 211° |
| 2026-05-05 07:29 | 7.75071 | 106.01810 | 35846 ft | 468 kts | 211° |
| 2026-05-05 07:29 | 7.69524 | 105.98372 | 35837 ft | 468 kts | 211° |
| 2026-05-05 07:30 | 7.63969 | 105.94929 | 35843 ft | 468 kts | 211° |
| 2026-05-05 07:30 | 7.55633 | 105.89790 | 35848 ft | 468 kts | 211° |
| 2026-05-05 07:31 | 7.50074 | 105.86368 | 35843 ft | 468 kts | 211° |
| 2026-05-05 07:31 | 7.44530 | 105.82940 | 35843 ft | 467 kts | 211° |
| 2026-05-05 07:32 | 7.38983 | 105.79519 | 35843 ft | 467 kts | 211° |
| 2026-05-05 07:32 | 7.33439 | 105.76097 | 35846 ft | 467 kts | 211° |
| 2026-05-05 07:33 | 7.27891 | 105.72675 | 35849 ft | 468 kts | 211° |
| 2026-05-05 07:33 | 7.22334 | 105.69264 | 35851 ft | 468 kts | 210° |
| 2026-05-05 07:34 | 7.16785 | 105.65850 | 35845 ft | 467 kts | 211° |
| 2026-05-05 07:34 | 7.11237 | 105.62431 | 35850 ft | 468 kts | 211° |
| 2026-05-05 07:35 | 7.05690 | 105.59013 | 35855 ft | 467 kts | 211° |
| 2026-05-05 07:35 | 7.00147 | 105.55594 | 35852 ft | 467 kts | 210° |
| 2026-05-05 07:36 | 6.94447 | 105.52461 | 35863 ft | 467 kts | 205° |
| 2026-05-05 07:36 | 6.88606 | 105.49617 | 35855 ft | 466 kts | 204° |
| 2026-05-05 07:37 | 6.82809 | 105.46787 | 35855 ft | 466 kts | 205° |
| 2026-05-05 07:37 | 6.77015 | 105.43851 | 35861 ft | 466 kts | 206° |
| 2026-05-05 07:38 | 6.71244 | 105.40884 | 35847 ft | 466 kts | 206° |
| 2026-05-05 07:38 | 6.65463 | 105.37928 | 35855 ft | 466 kts | 206° |
| 2026-05-05 07:39 | 6.59677 | 105.34986 | 35857 ft | 466 kts | 206° |
| 2026-05-05 07:39 | 6.53881 | 105.32053 | 35852 ft | 466 kts | 205° |
| 2026-05-05 07:40 | 6.48090 | 105.29115 | 35859 ft | 467 kts | 206° |
| 2026-05-05 07:40 | 6.42300 | 105.26169 | 35858 ft | 466 kts | 206° |
| 2026-05-05 07:41 | 6.36514 | 105.23222 | 35855 ft | 467 kts | 206° |
| 2026-05-05 07:41 | 6.30724 | 105.20280 | 35854 ft | 466 kts | 206° |
| 2026-05-05 07:42 | 6.24938 | 105.17348 | 35862 ft | 466 kts | 206° |
| 2026-05-05 07:42 | 6.19158 | 105.14415 | 35856 ft | 465 kts | 206° |
| 2026-05-05 07:43 | 6.13373 | 105.11482 | 35857 ft | 466 kts | 206° |
| 2026-05-05 07:43 | 6.07590 | 105.08546 | 35852 ft | 466 kts | 206° |
| 2026-05-05 07:44 | 6.01804 | 105.05609 | 35856 ft | 466 kts | 206° |
| 2026-05-05 07:44 | 5.96021 | 105.02679 | 35857 ft | 465 kts | 206° |
| 2026-05-05 07:45 | 5.90237 | 104.99756 | 35860 ft | 465 kts | 206° |
| 2026-05-05 07:45 | 5.84460 | 104.96832 | 35859 ft | 465 kts | 206° |
| 2026-05-05 07:46 | 5.78689 | 104.93905 | 35853 ft | 464 kts | 206° |
| 2026-05-05 07:46 | 5.72961 | 104.90996 | 35860 ft | 465 kts | 206° |
| 2026-05-05 07:47 | 5.67189 | 104.88071 | 35857 ft | 465 kts | 206° |
| 2026-05-05 07:47 | 5.61409 | 104.85147 | 35867 ft | 465 kts | 206° |
| 2026-05-05 07:48 | 5.56570 | 104.82700 | 35853 ft | 465 kts | 205° |
| 2026-05-05 07:48 | 5.50795 | 104.79781 | 35844 ft | 465 kts | 206° |
| 2026-05-05 07:49 | 5.45060 | 104.76875 | 35847 ft | 465 kts | 206° |
| 2026-05-05 07:49 | 5.39288 | 104.73953 | 35841 ft | 465 kts | 205° |
| 2026-05-05 07:50 | 5.33506 | 104.71038 | 35841 ft | 465 kts | 205° |
| 2026-05-05 07:50 | 5.27729 | 104.68126 | 35837 ft | 464 kts | 205° |
| 2026-05-05 07:51 | 5.21963 | 104.65213 | 35850 ft | 464 kts | 206° |
| 2026-05-05 07:51 | 5.16202 | 104.62294 | 35839 ft | 464 kts | 206° |
| 2026-05-05 07:52 | 5.10441 | 104.59376 | 35838 ft | 464 kts | 206° |
| 2026-05-05 07:52 | 5.04678 | 104.56459 | 35838 ft | 464 kts | 206° |
| 2026-05-05 07:53 | 4.98903 | 104.53542 | 35839 ft | 464 kts | 206° |
| 2026-05-05 07:53 | 4.93132 | 104.50624 | 35839 ft | 465 kts | 206° |
| 2026-05-05 07:54 | 4.87102 | 104.48410 | 35838 ft | 462 kts | 189° |
| 2026-05-05 07:54 | 4.80729 | 104.48281 | 35835 ft | 459 kts | 171° |
| 2026-05-05 07:55 | 4.74393 | 104.49096 | 35831 ft | 459 kts | 172° |
| 2026-05-05 07:55 | 4.68046 | 104.49890 | 35832 ft | 460 kts | 172° |
| 2026-05-05 07:56 | 4.61699 | 104.50684 | 35832 ft | 460 kts | 172° |
| 2026-05-05 07:56 | 4.55352 | 104.51488 | 35828 ft | 459 kts | 172° |
| 2026-05-05 07:57 | 4.49012 | 104.52277 | 35826 ft | 460 kts | 172° |
| 2026-05-05 07:57 | 4.42658 | 104.53078 | 35826 ft | 460 kts | 172° |
| 2026-05-05 07:58 | 4.36346 | 104.53880 | 35827 ft | 460 kts | 172° |
| 2026-05-05 07:58 | 4.29992 | 104.54682 | 35826 ft | 460 kts | 172° |
| 2026-05-05 07:59 | 4.23629 | 104.55484 | 35824 ft | 461 kts | 172° |
| 2026-05-05 07:59 | 4.17263 | 104.56251 | 35825 ft | 461 kts | 173° |
| 2026-05-05 08:00 | 4.10874 | 104.56864 | 35826 ft | 461 kts | 174° |
| 2026-05-05 08:00 | 4.04484 | 104.57437 | 35832 ft | 461 kts | 174° |
| 2026-05-05 08:01 | 3.98098 | 104.58042 | 35827 ft | 461 kts | 173° |
| 2026-05-05 08:01 | 3.91717 | 104.58670 | 35826 ft | 461 kts | 173° |
| 2026-05-05 08:02 | 3.85338 | 104.59300 | 35825 ft | 461 kts | 173° |
| 2026-05-05 08:02 | 3.78957 | 104.59933 | 35825 ft | 461 kts | 173° |
| 2026-05-05 08:03 | 3.72578 | 104.60561 | 35825 ft | 461 kts | 173° |
| 2026-05-05 08:03 | 3.66192 | 104.61182 | 35832 ft | 461 kts | 173° |
| 2026-05-05 08:04 | 3.59808 | 104.61803 | 35832 ft | 461 kts | 173° |
| 2026-05-05 08:04 | 3.53424 | 104.62436 | 35834 ft | 461 kts | 173° |
| 2026-05-05 08:05 | 3.47043 | 104.63069 | 35834 ft | 460 kts | 173° |
| 2026-05-05 08:05 | 3.40729 | 104.63686 | 35833 ft | 460 kts | 173° |
| 2026-05-05 08:06 | 3.34340 | 104.64309 | 35718 ft | 461 kts | 173° |
| 2026-05-05 08:06 | 3.31151 | 104.64625 | 35466 ft | 460 kts | 173° |
| 2026-05-05 08:06 | 3.27964 | 104.64940 | 35217 ft | 460 kts | 173° |
| 2026-05-05 08:07 | 3.24775 | 104.65254 | 34967 ft | 461 kts | 173° |
| 2026-05-05 08:07 | 3.21579 | 104.65563 | 34717 ft | 461 kts | 174° |
| 2026-05-05 08:07 | 3.18384 | 104.65869 | 34468 ft | 462 kts | 174° |
| 2026-05-05 08:07 | 3.15186 | 104.66178 | 34228 ft | 462 kts | 174° |
| 2026-05-05 08:08 | 3.11989 | 104.66488 | 33971 ft | 462 kts | 174° |
| 2026-05-05 08:08 | 3.08769 | 104.66500 | 33717 ft | 463 kts | 185° |
| 2026-05-05 08:08 | 3.05603 | 104.65892 | 33468 ft | 465 kts | 197° |
| 2026-05-05 08:08 | 3.02608 | 104.64669 | 33219 ft | 467 kts | 208° |
| 2026-05-05 08:09 | 2.99899 | 104.62881 | 32969 ft | 468 kts | 219° |
| 2026-05-05 08:09 | 2.97555 | 104.60619 | 32657 ft | 469 kts | 226° |
| 2026-05-05 08:09 | 2.95317 | 104.58220 | 31750 ft | 473 kts | 226° |
| 2026-05-05 08:09 | 2.93080 | 104.55834 | 31266 ft | 467 kts | 226° |
| 2026-05-05 08:10 | 2.90860 | 104.53469 | 30638 ft | 465 kts | 226° |
| 2026-05-05 08:10 | 2.88652 | 104.51120 | 30026 ft | 462 kts | 226° |
| 2026-05-05 08:10 | 2.86463 | 104.48788 | 29409 ft | 459 kts | 226° |
| 2026-05-05 08:10 | 2.84288 | 104.46462 | 28795 ft | 456 kts | 226° |
| 2026-05-05 08:11 | 2.82133 | 104.44153 | 28188 ft | 452 kts | 226° |
| 2026-05-05 08:11 | 2.79992 | 104.41857 | 27592 ft | 449 kts | 226° |
| 2026-05-05 08:11 | 2.77871 | 104.39585 | 26987 ft | 446 kts | 226° |
| 2026-05-05 08:11 | 2.75759 | 104.37329 | 26386 ft | 442 kts | 226° |
| 2026-05-05 08:12 | 2.73672 | 104.35105 | 25829 ft | 435 kts | 226° |
| 2026-05-05 08:12 | 2.71604 | 104.32901 | 25255 ft | 432 kts | 226° |
| 2026-05-05 08:12 | 2.69563 | 104.30720 | 24720 ft | 429 kts | 226° |
| 2026-05-05 08:12 | 2.67533 | 104.28550 | 24187 ft | 425 kts | 226° |
| 2026-05-05 08:13 | 2.65520 | 104.26399 | 23683 ft | 422 kts | 226° |
| 2026-05-05 08:13 | 2.63520 | 104.24264 | 23181 ft | 419 kts | 226° |
| 2026-05-05 08:13 | 2.61537 | 104.22148 | 22690 ft | 416 kts | 226° |
| 2026-05-05 08:13 | 2.59569 | 104.20047 | 22188 ft | 412 kts | 226° |
| 2026-05-05 08:14 | 2.57615 | 104.17962 | 21684 ft | 410 kts | 226° |
| 2026-05-05 08:14 | 2.55676 | 104.15889 | 21206 ft | 406 kts | 226° |
| 2026-05-05 08:14 | 2.53775 | 104.13860 | 21053 ft | 391 kts | 225° |
| 2026-05-05 08:14 | 2.51753 | 104.12171 | 20848 ft | 370 kts | 211° |
| 2026-05-05 08:15 | 2.49488 | 104.11056 | 20410 ft | 358 kts | 196° |
| 2026-05-05 08:15 | 2.47112 | 104.10547 | 20165 ft | 352 kts | 183° |
| 2026-05-05 08:15 | 2.44677 | 104.10504 | 19927 ft | 350 kts | 178° |
| 2026-05-05 08:15 | 2.42245 | 104.10514 | 19750 ft | 349 kts | 178° |
| 2026-05-05 08:16 | 2.39821 | 104.10516 | 19463 ft | 348 kts | 178° |
| 2026-05-05 08:16 | 2.37409 | 104.10514 | 19156 ft | 346 kts | 178° |
| 2026-05-05 08:16 | 2.35009 | 104.10509 | 18846 ft | 344 kts | 178° |
| 2026-05-05 08:16 | 2.32619 | 104.10503 | 18538 ft | 342 kts | 178° |
| 2026-05-05 08:17 | 2.30240 | 104.10498 | 18229 ft | 341 kts | 178° |
| 2026-05-05 08:17 | 2.27874 | 104.10494 | 17918 ft | 339 kts | 178° |
| 2026-05-05 08:17 | 2.25525 | 104.10492 | 17629 ft | 338 kts | 178° |
| 2026-05-05 08:17 | 2.23181 | 104.10492 | 17329 ft | 336 kts | 178° |
| 2026-05-05 08:18 | 2.20843 | 104.10493 | 17021 ft | 334 kts | 178° |
| 2026-05-05 08:18 | 2.18527 | 104.10492 | 16729 ft | 333 kts | 178° |
| 2026-05-05 08:18 | 2.16218 | 104.10492 | 16435 ft | 331 kts | 179° |
| 2026-05-05 08:18 | 2.13916 | 104.10492 | 16140 ft | 329 kts | 179° |
| 2026-05-05 08:19 | 2.11633 | 104.10493 | 15839 ft | 327 kts | 178° |
| 2026-05-05 08:19 | 2.09359 | 104.10495 | 15515 ft | 326 kts | 178° |
| 2026-05-05 08:19 | 2.07102 | 104.10496 | 15225 ft | 324 kts | 179° |
| 2026-05-05 08:19 | 2.04847 | 104.10496 | 14938 ft | 323 kts | 179° |
| 2026-05-05 08:20 | 2.02619 | 104.10495 | 14729 ft | 316 kts | 179° |
| 2026-05-05 08:20 | 2.00451 | 104.10494 | 14597 ft | 305 kts | 179° |
| 2026-05-05 08:20 | 1.98378 | 104.10496 | 14455 ft | 293 kts | 178° |
| 2026-05-05 08:20 | 1.96367 | 104.10503 | 14284 ft | 287 kts | 178° |
| 2026-05-05 08:21 | 1.94378 | 104.10515 | 14012 ft | 285 kts | 178° |
| 2026-05-05 08:21 | 1.92408 | 104.10525 | 13763 ft | 281 kts | 179° |
| 2026-05-05 08:21 | 1.90460 | 104.10534 | 13537 ft | 279 kts | 178° |
| 2026-05-05 08:21 | 1.88525 | 104.10543 | 13301 ft | 277 kts | 179° |
| 2026-05-05 08:22 | 1.86599 | 104.10554 | 13062 ft | 276 kts | 179° |
| 2026-05-05 08:22 | 1.84681 | 104.10564 | 12831 ft | 275 kts | 179° |
| 2026-05-05 08:22 | 1.82776 | 104.10572 | 12611 ft | 274 kts | 179° |
| 2026-05-05 08:22 | 1.80872 | 104.10580 | 12376 ft | 273 kts | 179° |
| 2026-05-05 08:23 | 1.78980 | 104.10586 | 12151 ft | 272 kts | 179° |
| 2026-05-05 08:23 | 1.77095 | 104.10592 | 11921 ft | 271 kts | 179° |
| 2026-05-05 08:23 | 1.75214 | 104.10599 | 11703 ft | 270 kts | 179° |
| 2026-05-05 08:23 | 1.73339 | 104.10606 | 11482 ft | 269 kts | 179° |
| 2026-05-05 08:24 | 1.71470 | 104.10614 | 11245 ft | 268 kts | 179° |
| 2026-05-05 08:24 | 1.69611 | 104.10623 | 11009 ft | 267 kts | 179° |
| 2026-05-05 08:24 | 1.67752 | 104.10633 | 10756 ft | 266 kts | 179° |
| 2026-05-05 08:24 | 1.65905 | 104.10643 | 10506 ft | 265 kts | 179° |
| 2026-05-05 08:25 | 1.64061 | 104.10651 | 10255 ft | 264 kts | 179° |
| 2026-05-05 08:25 | 1.62250 | 104.10658 | 10018 ft | 263 kts | 179° |
| 2026-05-05 08:25 | 1.60433 | 104.10827 | 9852 ft | 263 kts | 171° |
| 2026-05-05 08:25 | 1.58626 | 104.11093 | 9729 ft | 263 kts | 171° |
| 2026-05-05 08:26 | 1.56815 | 104.11358 | 9619 ft | 263 kts | 171° |
| 2026-05-05 08:26 | 1.55011 | 104.11624 | 9432 ft | 262 kts | 171° |
| 2026-05-05 08:26 | 1.53213 | 104.11888 | 9216 ft | 261 kts | 172° |
| 2026-05-05 08:26 | 1.51416 | 104.12152 | 8992 ft | 260 kts | 172° |
| 2026-05-05 08:27 | 1.49629 | 104.12415 | 8773 ft | 259 kts | 172° |
| 2026-05-05 08:27 | 1.47845 | 104.12680 | 8551 ft | 258 kts | 171° |
| 2026-05-05 08:27 | 1.46059 | 104.12811 | 8345 ft | 257 kts | 185° |
| 2026-05-05 08:27 | 1.44327 | 104.12427 | 8125 ft | 256 kts | 202° |
| 2026-05-05 08:28 | 1.42689 | 104.11731 | 7904 ft | 256 kts | 203° |
| 2026-05-05 08:28 | 1.41055 | 104.11035 | 7681 ft | 254 kts | 203° |
| 2026-05-05 08:28 | 1.39431 | 104.10347 | 7461 ft | 253 kts | 203° |
| 2026-05-05 08:28 | 1.37817 | 104.09664 | 7240 ft | 252 kts | 203° |
| 2026-05-05 08:29 | 1.36208 | 104.08983 | 7023 ft | 251 kts | 203° |
| 2026-05-05 08:29 | 1.34605 | 104.08304 | 6802 ft | 249 kts | 203° |
| 2026-05-05 08:29 | 1.33009 | 104.07627 | 6587 ft | 249 kts | 203° |
| 2026-05-05 08:30 | 1.29835 | 104.06281 | 6156 ft | 247 kts | 203° |
| 2026-05-05 08:30 | 1.28257 | 104.05615 | 5942 ft | 246 kts | 203° |
| 2026-05-05 08:30 | 1.26684 | 104.04951 | 5731 ft | 245 kts | 203° |
| 2026-05-05 08:30 | 1.25113 | 104.04288 | 5528 ft | 244 kts | 203° |
| 2026-05-05 08:31 | 1.23550 | 104.03628 | 5308 ft | 244 kts | 203° |
| 2026-05-05 08:31 | 1.21994 | 104.02969 | 5102 ft | 243 kts | 203° |
| 2026-05-05 08:31 | 1.20440 | 104.02310 | 4892 ft | 242 kts | 203° |
| 2026-05-05 08:31 | 1.18896 | 104.01653 | 4684 ft | 241 kts | 203° |
| 2026-05-05 08:32 | 1.17353 | 104.00999 | 4481 ft | 240 kts | 202° |
| 2026-05-05 08:32 | 1.15893 | 104.00213 | 4269 ft | 239 kts | 222° |
| 2026-05-05 08:32 | 1.14963 | 103.98862 | 4066 ft | 238 kts | 251° |
| 2026-05-05 08:32 | 1.14813 | 103.97235 | 3836 ft | 237 kts | 281° |
| 2026-05-05 08:33 | 1.15465 | 103.95734 | 3606 ft | 238 kts | 306° |
| 2026-05-05 08:33 | 1.16430 | 103.94392 | 3368 ft | 238 kts | 306° |
| 2026-05-05 08:33 | 1.17386 | 103.93066 | 3134 ft | 232 kts | 306° |
| 2026-05-05 08:33 | 1.18509 | 103.91943 | 2912 ft | 228 kts | 333° |
| 2026-05-05 08:34 | 1.20004 | 103.91617 | 2820 ft | 219 kts | 7° |
| 2026-05-05 08:34 | 1.21446 | 103.92055 | 2575 ft | 219 kts | 23° |
| 2026-05-05 08:34 | 1.22855 | 103.92634 | 2275 ft | 216 kts | 23° |
| 2026-05-05 08:34 | 1.24200 | 103.93207 | 2046 ft | 205 kts | 24° |
| 2026-05-05 08:35 | 1.25506 | 103.93766 | 1836 ft | 202 kts | 23° |
| 2026-05-05 08:35 | 1.26779 | 103.94304 | 1637 ft | 198 kts | 23° |
| 2026-05-05 08:35 | 1.28020 | 103.94827 | 1457 ft | 185 kts | 25° |
| 2026-05-05 08:35 | 1.29149 | 103.95301 | 1264 ft | 165 kts | 25° |
| 2026-05-05 08:36 | 1.29818 | 103.95582 | 1107 ft | 153 kts | 25° |
| 2026-05-05 08:36 | 1.31080 | 103.96122 | 840 ft | 144 kts | 26° |
| 2026-05-05 08:36 | 1.31687 | 103.96382 | 741 ft | 143 kts | 26° |
| 2026-05-05 08:36 | 1.32602 | 103.96766 | 493 ft | 142 kts | 25° |
| 2026-05-05 08:37 | 1.33498 | 103.97150 | 329 ft | 143 kts | 25° |
| 2026-05-05 08:37 | 1.34707 | 103.97663 | 117 ft | 143 kts | 25° |
| 2026-05-05 08:37 | 1.35305 | 103.97912 | 39 ft | 136 kts | 24° |
| 2026-05-05 08:37 | 1.36037 | 103.98228 | 31 ft | 95 kts | 23° |
| 2026-05-05 08:38 | 1.36485 | 103.98417 | 29 ft | 45 kts | 23° |
| 2026-05-05 08:38 | 1.36653 | 103.98516 | 31 ft | 17 kts | 43° |
| 2026-05-05 08:38 | 1.36722 | 103.98588 | 31 ft | 11 kts | 53° |
| 2026-05-05 08:38 | 1.36755 | 103.98632 | 31 ft | 6 kts | 53° |
| 2026-05-05 08:39 | 1.36786 | 103.98673 | 31 ft | 9 kts | 53° |
| 2026-05-05 08:39 | 1.36817 | 103.98714 | 31 ft | 1 kts | 51° |
| 2026-05-05 08:39 | 1.36823 | 103.98720 | 30 ft | 0 kts | 51° |
| 2026-05-05 08:40 | 1.36826 | 103.98725 | 31 ft | 4 kts | 53° |
| 2026-05-05 08:41 | 1.36840 | 103.98773 | 30 ft | 9 kts | 89° |
| 2026-05-05 08:41 | 1.36823 | 103.98834 | 30 ft | 10 kts | 110° |
| 2026-05-05 08:41 | 1.36792 | 103.98908 | 30 ft | 13 kts | 114° |
| 2026-05-05 08:41 | 1.36751 | 103.99003 | 30 ft | 17 kts | 112° |
| 2026-05-05 08:42 | 1.36707 | 103.99106 | 30 ft | 16 kts | 113° |
| 2026-05-05 08:42 | 1.36660 | 103.99216 | 30 ft | 19 kts | 113° |
| 2026-05-05 08:42 | 1.36604 | 103.99346 | 30 ft | 22 kts | 113° |
| 2026-05-05 08:42 | 1.36545 | 103.99483 | 30 ft | 20 kts | 113° |
| 2026-05-05 08:43 | 1.36490 | 103.99597 | 30 ft | 13 kts | 140° |
| 2026-05-05 08:43 | 1.36396 | 103.99584 | 30 ft | 16 kts | 212° |
| 2026-05-05 08:43 | 1.36333 | 103.99508 | 30 ft | 15 kts | 233° |
| 2026-05-05 08:43 | 1.36265 | 103.99429 | 30 ft | 12 kts | 217° |
| 2026-05-05 08:44 | 1.36219 | 103.99386 | 30 ft | 6 kts | 267° |
| 2026-05-05 08:44 | 1.36237 | 103.99345 | 30 ft | 5 kts | 293° |
| 2026-05-05 08:44 | 1.36249 | 103.99318 | 30 ft | 1 kts | 294° |
| 2026-05-05 08:44 | 1.36250 | 103.99315 | 30 ft | 0 kts | 294° |